createdAt,value
2019-05-11T00:00:32.858Z,46.33
2019-05-11T00:01:32.851Z,45.92
2019-05-11T00:02:32.859Z,46.33
2019-05-11T00:03:32.830Z,46.33
2019-05-11T00:04:32.815Z,46.03
2019-05-11T00:05:32.803Z,46.12
2019-05-11T00:06:32.793Z,45.65
2019-05-11T00:07:32.807Z,45.22
2019-05-11T00:08:32.771Z,46.33
2019-05-11T00:09:32.764Z,45.45
2019-05-11T00:10:32.758Z,46.35
2019-05-11T00:11:32.743Z,45.32
2019-05-11T00:12:32.748Z,46.33
2019-05-11T00:13:32.716Z,46.15
2019-05-11T00:14:32.705Z,46.12
2019-05-11T00:15:32.696Z,46.15
2019-05-11T00:16:32.685Z,46.15
2019-05-11T00:17:32.696Z,46.25
2019-05-11T00:18:32.660Z,46.03
2019-05-11T00:19:32.653Z,45.34
2019-05-11T00:20:32.638Z,45.34
2019-05-11T00:21:32.627Z,46.25
2019-05-11T00:22:32.641Z,45.22
2019-05-11T00:23:32.604Z,45.95
2019-05-11T00:24:32.594Z,46.25
2019-05-11T00:25:32.582Z,46.35
2019-05-11T00:26:32.572Z,46.25
2019-05-11T00:27:32.580Z,45.25
2019-05-11T00:28:32.549Z,46.15
2019-05-11T00:29:32.556Z,46.35
2019-05-11T00:30:32.526Z,45.95
2019-05-11T00:31:32.517Z,45.65
2019-05-11T00:32:32.526Z,45.92
2019-05-11T00:33:32.493Z,45.65
2019-05-11T00:34:32.506Z,45.92
2019-05-11T00:35:32.476Z,45.95
2019-05-11T00:36:32.465Z,46.55
2019-05-11T00:37:32.449Z,45.84
2019-05-11T00:38:32.460Z,45.84
2019-05-11T00:39:32.427Z,46.45
2019-05-11T00:40:32.418Z,45.95
2019-05-11T00:41:32.405Z,45.65
2019-05-11T00:42:32.395Z,45.75
2019-05-11T00:43:32.410Z,45.95
2019-05-11T00:44:32.371Z,45.95
2019-05-11T00:45:32.359Z,45.95
2019-05-11T00:46:32.354Z,45.84
2019-05-11T00:47:32.341Z,46.25
2019-05-11T00:48:32.351Z,46.25
2019-05-11T00:49:32.321Z,45.65
2019-05-11T00:50:39.194Z,45.84
2019-05-11T00:51:33.293Z,45.84
2019-05-11T00:52:32.283Z,46.15
2019-05-11T00:53:32.309Z,46.04
2019-05-11T00:54:32.261Z,45.84
2019-05-11T00:55:32.249Z,45.65
2019-05-11T00:56:32.238Z,45.95
2019-05-11T00:57:32.227Z,45.75
2019-05-11T00:58:32.237Z,45.84
2019-05-11T00:59:32.205Z,45.65
2019-05-11T01:00:32.201Z,45.84
2019-05-11T01:01:32.196Z,45.84
2019-05-11T01:02:32.172Z,45.95
2019-05-11T01:03:32.183Z,46.04
2019-05-11T01:04:32.163Z,45.75
2019-05-11T01:05:32.138Z,45.84
2019-05-11T01:06:32.127Z,45.95
2019-05-11T01:07:32.116Z,45.65
2019-05-11T01:08:32.126Z,45.95
2019-05-11T01:09:32.093Z,45.84
2019-05-11T01:10:41.782Z,46.35
2019-05-11T01:11:33.070Z,46.55
2019-05-11T01:12:32.062Z,46.25
2019-05-11T01:13:32.069Z,46.25
2019-05-11T01:14:32.040Z,46.55
2019-05-11T01:15:32.031Z,46.04
2019-05-11T01:16:32.022Z,45.95
2019-05-11T01:17:32.004Z,46.25
2019-05-11T01:18:32.024Z,45.65
2019-05-11T01:19:31.983Z,46.15
2019-05-11T01:20:31.971Z,45.95
2019-05-11T01:21:31.963Z,45.95
2019-05-11T01:22:31.948Z,45.65
2019-05-11T01:23:31.962Z,45.95
2019-05-11T01:24:31.927Z,45.84
2019-05-11T01:25:31.939Z,46.25
2019-05-11T01:26:31.904Z,45.95
2019-05-11T01:27:31.897Z,45.84
2019-05-11T01:28:31.883Z,46.35
2019-05-11T01:29:31.891Z,46.35
2019-05-11T01:30:31.860Z,45.95
2019-05-11T01:31:31.848Z,46.35
2019-05-11T01:32:31.837Z,45.84
2019-05-11T01:33:31.827Z,45.84
2019-05-11T01:34:31.843Z,45.95
2019-05-11T01:35:31.804Z,46.65
2019-05-11T01:36:31.795Z,45.84
2019-05-11T01:37:31.785Z,45.75
2019-05-11T01:38:31.775Z,45.75
2019-05-11T01:39:31.785Z,46.65
2019-05-11T01:40:31.750Z,45.95
2019-05-11T01:41:31.737Z,45.95
2019-05-11T01:42:31.731Z,45.65
2019-05-11T01:43:31.717Z,45.75
2019-05-11T01:44:31.726Z,45.95
2019-05-11T01:45:31.697Z,46.35
2019-05-11T01:46:31.683Z,45.84
2019-05-11T01:47:31.673Z,46.04
2019-05-11T01:48:31.659Z,46.04
2019-05-11T01:49:31.670Z,46.04
2019-05-11T01:50:31.641Z,46.04
2019-05-11T01:51:31.630Z,46.15
2019-05-11T01:52:31.619Z,45.65
2019-05-11T01:53:31.630Z,46.25
2019-05-11T01:54:31.626Z,46.07
2019-05-11T01:55:31.582Z,45.65
2019-05-11T01:56:31.575Z,46.27
2019-05-11T01:57:31.565Z,46.17
2019-05-11T01:58:31.551Z,46.25
2019-05-11T01:59:31.563Z,46.55
2019-05-11T02:00:31.528Z,46.55
2019-05-11T02:01:31.524Z,45.97
2019-05-11T02:02:31.505Z,46.37
2019-05-11T02:03:31.501Z,46.07
2019-05-11T02:04:31.505Z,46.67
2019-05-11T02:05:31.474Z,46.35
2019-05-11T02:06:31.467Z,45.87
2019-05-11T02:07:31.450Z,46.37
2019-05-11T02:08:31.439Z,45.67
2019-05-11T02:09:31.450Z,46.65
2019-05-11T02:10:31.420Z,46.07
2019-05-11T02:11:31.406Z,46.07
2019-05-11T02:12:31.399Z,46.07
2019-05-11T02:13:31.387Z,46.67
2019-05-11T02:14:31.394Z,46.55
2019-05-11T02:15:31.365Z,46.55
2019-05-11T02:16:31.354Z,46.27
2019-05-11T02:17:31.342Z,46.37
2019-05-11T02:18:31.328Z,46.67
2019-05-11T02:19:31.344Z,46.25
2019-05-11T02:20:31.313Z,46.37
2019-05-11T02:21:31.316Z,45.95
2019-05-11T02:22:31.284Z,46.25
2019-05-11T02:23:31.274Z,45.87
2019-05-11T02:24:31.263Z,46.37
2019-05-11T02:25:31.274Z,46.04
2019-05-11T02:26:31.241Z,46.27
2019-05-11T02:27:31.230Z,46.04
2019-05-11T02:28:31.218Z,46.25
2019-05-11T02:29:31.208Z,46.04
2019-05-11T02:30:31.222Z,46.25
2019-05-11T02:31:31.196Z,46.04
2019-05-11T02:32:31.174Z,46.45
2019-05-11T02:33:31.245Z,45.95
2019-05-11T02:34:31.158Z,45.97
2019-05-11T02:35:31.166Z,45.97
2019-05-11T02:36:31.156Z,46.57
2019-05-11T02:37:31.123Z,46.67
2019-05-11T02:38:31.109Z,46.27
2019-05-11T02:39:31.099Z,46.27
2019-05-11T02:40:31.116Z,46.07
2019-05-11T02:41:36.520Z,46.65
2019-05-11T02:42:32.064Z,46.37
2019-05-11T02:43:31.060Z,46.07
2019-05-11T02:44:31.042Z,46.37
2019-05-11T02:45:31.061Z,46.37
2019-05-11T02:46:31.025Z,46.35
2019-05-11T02:47:31.013Z,45.67
2019-05-11T02:48:31.001Z,46.15
2019-05-11T02:49:30.992Z,45.87
2019-05-11T02:50:30.998Z,46.15
2019-05-11T02:51:30.966Z,46.57
2019-05-11T02:52:30.963Z,46.27
2019-05-11T02:53:30.943Z,45.87
2019-05-11T02:54:30.933Z,46.35
2019-05-11T02:55:30.945Z,45.95
2019-05-11T02:56:30.915Z,45.95
2019-05-11T02:57:30.898Z,45.84
2019-05-11T02:58:30.889Z,45.65
2019-05-11T02:59:30.882Z,46.35
2019-05-11T03:00:30.885Z,46.35
2019-05-11T03:01:30.861Z,45.95
2019-05-11T03:02:30.845Z,45.25
2019-05-11T03:03:30.830Z,45.34
2019-05-11T03:04:30.823Z,45.84
2019-05-11T03:05:30.831Z,45.14
2019-05-11T03:06:30.801Z,45.54
2019-05-11T03:07:30.795Z,44.95
2019-05-11T03:08:30.775Z,45.54
2019-05-11T03:09:30.766Z,45.04
2019-05-11T03:10:30.777Z,45.34
2019-05-11T03:11:30.742Z,45.32
2019-05-11T03:12:30.731Z,45.32
2019-05-11T03:13:30.749Z,45.53
2019-05-11T03:14:30.720Z,45.22
2019-05-11T03:15:30.701Z,45.42
2019-05-11T03:16:30.714Z,45.42
2019-05-11T03:17:30.677Z,45.42
2019-05-11T03:18:30.665Z,45.53
2019-05-11T03:19:30.658Z,44.92
2019-05-11T03:20:30.652Z,45.10
2019-05-11T03:21:30.656Z,45.70
2019-05-11T03:22:30.629Z,45.10
2019-05-11T03:23:30.619Z,44.60
2019-05-11T03:24:30.599Z,44.90
2019-05-11T03:25:30.588Z,44.08
2019-05-11T03:26:30.602Z,44.98
2019-05-11T03:27:30.586Z,44.78
2019-05-11T03:28:30.555Z,44.98
2019-05-11T03:29:30.543Z,44.78
2019-05-11T03:30:30.537Z,44.26
2019-05-11T03:31:30.557Z,44.78
2019-05-11T03:32:30.513Z,44.38
2019-05-11T03:33:30.513Z,44.18
2019-05-11T03:34:30.492Z,44.06
2019-05-11T03:35:30.482Z,43.96
2019-05-11T03:36:30.488Z,43.76
2019-05-11T03:37:30.459Z,44.16
2019-05-11T03:38:30.455Z,43.85
2019-05-11T03:39:30.432Z,43.96
2019-05-11T03:40:30.437Z,43.35
2019-05-11T03:41:30.432Z,43.35
2019-05-11T03:42:30.400Z,43.24
2019-05-11T03:43:30.388Z,43.55
2019-05-11T03:44:30.387Z,43.54
2019-05-11T03:45:30.365Z,43.74
2019-05-11T03:46:30.377Z,43.74
2019-05-11T03:47:30.346Z,43.84
2019-05-11T03:48:30.333Z,43.84
2019-05-11T03:49:30.321Z,43.33
2019-05-11T03:50:30.314Z,43.33
2019-05-11T03:51:30.324Z,43.84
2019-05-11T03:52:30.294Z,43.24
2019-05-11T03:53:30.278Z,43.33
2019-05-11T03:54:30.267Z,43.04
2019-05-11T03:55:30.256Z,42.93
2019-05-11T03:56:30.270Z,42.91
2019-05-11T03:57:30.233Z,43.24
2019-05-11T03:58:30.222Z,42.52
2019-05-11T03:59:30.212Z,43.32
2019-05-11T04:00:30.200Z,43.01
2019-05-11T04:01:30.214Z,43.01
2019-05-11T04:02:30.179Z,42.82
2019-05-11T04:03:30.168Z,43.01
2019-05-11T04:04:30.156Z,43.12
2019-05-11T04:05:30.167Z,43.01
2019-05-11T04:06:30.138Z,42.82
2019-05-11T04:07:30.144Z,42.82
2019-05-11T04:08:30.113Z,42.82
2019-05-11T04:09:30.100Z,42.21
2019-05-11T04:10:30.101Z,42.32
2019-05-11T04:11:30.107Z,43.01
2019-05-11T04:12:34.540Z,42.19
2019-05-11T04:13:31.063Z,42.82
2019-05-11T04:14:30.047Z,42.71
2019-05-11T04:15:30.038Z,42.52
2019-05-11T04:16:30.024Z,42.49
2019-05-11T04:17:30.032Z,42.61
2019-05-11T04:18:30.004Z,42.61
2019-05-11T04:19:29.989Z,42.79
2019-05-11T04:20:29.977Z,42.60
2019-05-11T04:21:29.968Z,41.99
2019-05-11T04:22:29.981Z,42.69
2019-05-11T04:23:29.949Z,43.09
2019-05-11T04:24:29.938Z,42.49
2019-05-11T04:25:29.924Z,42.49
2019-05-11T04:26:29.916Z,42.40
2019-05-11T04:27:29.929Z,42.10
2019-05-11T04:28:29.890Z,41.99
2019-05-11T04:29:29.881Z,41.99
2019-05-11T04:30:29.872Z,41.80
2019-05-11T04:31:29.859Z,41.69
2019-05-11T04:32:29.869Z,41.80
2019-05-11T04:33:33.027Z,41.80
2019-05-11T04:34:29.827Z,41.89
2019-05-11T04:35:29.812Z,41.99
2019-05-11T04:36:29.801Z,41.69
2019-05-11T04:37:29.813Z,41.99
2019-05-11T04:38:29.780Z,41.80
2019-05-11T04:39:29.772Z,41.89
2019-05-11T04:40:29.757Z,41.99
2019-05-11T04:41:29.750Z,41.80
2019-05-11T04:42:29.775Z,41.99
2019-05-11T04:43:29.726Z,41.80
2019-05-11T04:44:29.713Z,41.69
2019-05-11T04:45:29.706Z,41.89
2019-05-11T04:46:29.700Z,41.88
2019-05-11T04:47:29.700Z,41.80
2019-05-11T04:48:29.677Z,41.80
2019-05-11T04:49:29.659Z,41.58
2019-05-11T04:50:29.647Z,41.80
2019-05-11T04:51:29.636Z,41.77
2019-05-11T04:52:29.645Z,41.88
2019-05-11T04:53:29.618Z,42.40
2019-05-11T04:54:29.602Z,41.69
2019-05-11T04:55:29.595Z,41.39
2019-05-11T04:56:29.581Z,41.30
2019-05-11T04:57:29.595Z,42.29
2019-05-11T04:58:29.562Z,41.49
2019-05-11T04:59:29.551Z,41.39
2019-05-11T05:00:29.537Z,41.47
2019-05-11T05:01:29.549Z,41.60
2019-05-11T05:02:29.514Z,41.27
2019-05-11T05:03:40.264Z,41.49
2019-05-11T05:04:30.490Z,41.60
2019-05-11T05:05:29.485Z,41.49
2019-05-11T05:06:29.469Z,41.49
2019-05-11T05:07:29.460Z,41.99
2019-05-11T05:08:29.469Z,41.49
2019-05-11T05:09:29.542Z,41.99
2019-05-11T05:10:29.429Z,41.47
2019-05-11T05:11:30.596Z,41.97
2019-05-11T05:12:30.403Z,41.77
2019-05-11T05:13:31.366Z,41.58
2019-05-11T05:14:29.381Z,41.77
2019-05-11T05:15:29.370Z,41.77
2019-05-11T05:16:31.563Z,41.77
2019-05-11T05:17:29.349Z,41.88
2019-05-11T05:18:29.359Z,41.47
2019-05-11T05:19:29.328Z,41.67
2019-05-11T05:20:29.319Z,41.77
2019-05-11T05:21:29.304Z,41.47
2019-05-11T05:22:29.294Z,41.47
2019-05-11T05:23:29.305Z,42.07
2019-05-11T05:24:29.270Z,41.67
2019-05-11T05:25:29.262Z,42.07
2019-05-11T05:26:29.250Z,41.88
2019-05-11T05:27:29.238Z,41.88
2019-05-11T05:28:29.262Z,41.88
2019-05-11T05:29:29.216Z,41.97
2019-05-11T05:30:29.206Z,42.07
2019-05-11T05:31:29.197Z,41.77
2019-05-11T05:32:29.184Z,42.07
2019-05-11T05:33:29.194Z,41.77
2019-05-11T05:34:29.161Z,41.77
2019-05-11T05:35:29.155Z,42.07
2019-05-11T05:36:29.143Z,41.88
2019-05-11T05:37:29.128Z,41.67
2019-05-11T05:38:29.138Z,41.67
2019-05-11T05:39:29.105Z,41.67
2019-05-11T05:40:29.095Z,41.77
2019-05-11T05:41:29.083Z,41.67
2019-05-11T05:42:29.077Z,41.77
2019-05-11T05:43:29.084Z,41.77
2019-05-11T05:44:29.052Z,41.58
2019-05-11T05:45:29.039Z,41.77
2019-05-11T05:46:29.028Z,41.77
2019-05-11T05:47:29.016Z,41.97
2019-05-11T05:48:29.031Z,41.88
2019-05-11T05:49:28.998Z,41.77
2019-05-11T05:50:28.983Z,41.77
2019-05-11T05:51:28.972Z,41.58
2019-05-11T05:52:28.962Z,41.67
2019-05-11T05:53:28.959Z,41.67
2019-05-11T05:54:29.035Z,41.77
2019-05-11T05:55:28.932Z,41.47
2019-05-11T05:56:28.917Z,41.97
2019-05-11T05:57:28.909Z,41.77
2019-05-11T05:58:28.900Z,41.77
2019-05-11T05:59:28.910Z,41.88
2019-05-11T06:00:28.873Z,41.67
2019-05-11T06:01:28.870Z,41.77
2019-05-11T06:02:28.855Z,41.77
2019-05-11T06:03:28.841Z,41.77
2019-05-11T06:04:28.855Z,41.67
2019-05-11T06:05:28.823Z,42.07
2019-05-11T06:06:28.828Z,41.47
2019-05-11T06:07:28.803Z,41.58
2019-05-11T06:08:28.797Z,41.88
2019-05-11T06:09:28.799Z,41.67
2019-05-11T06:10:28.763Z,41.77
2019-05-11T06:11:28.754Z,41.88
2019-05-11T06:12:28.743Z,41.67
2019-05-11T06:13:43.818Z,41.67
2019-05-11T06:14:29.741Z,41.77
2019-05-11T06:15:28.708Z,41.67
2019-05-11T06:16:28.702Z,41.58
2019-05-11T06:17:28.691Z,41.77
2019-05-11T06:18:28.677Z,41.88
2019-05-11T06:19:28.685Z,41.67
2019-05-11T06:20:28.654Z,41.97
2019-05-11T06:21:28.644Z,41.27
2019-05-11T06:22:28.631Z,41.67
2019-05-11T06:23:28.621Z,41.67
2019-05-11T06:24:28.636Z,41.47
2019-05-11T06:25:28.603Z,41.47
2019-05-11T06:26:28.590Z,41.97
2019-05-11T06:27:28.576Z,41.77
2019-05-11T06:28:28.568Z,41.77
2019-05-11T06:29:28.579Z,41.27
2019-05-11T06:30:28.543Z,41.77
2019-05-11T06:31:28.539Z,41.77
2019-05-11T06:32:28.522Z,41.77
2019-05-11T06:33:28.514Z,41.67
2019-05-11T06:34:28.522Z,41.97
2019-05-11T06:35:28.491Z,41.77
2019-05-11T06:36:28.484Z,41.27
2019-05-11T06:37:28.467Z,41.38
2019-05-11T06:38:28.454Z,41.67
2019-05-11T06:39:28.466Z,41.47
2019-05-11T06:40:28.799Z,42.07
2019-05-11T06:41:28.422Z,41.47
2019-05-11T06:42:28.411Z,41.38
2019-05-11T06:43:28.400Z,41.27
2019-05-11T06:44:28.411Z,41.47
2019-05-11T06:45:28.378Z,41.38
2019-05-11T06:46:28.369Z,41.27
2019-05-11T06:47:28.360Z,41.27
2019-05-11T06:48:28.366Z,41.47
2019-05-11T06:49:28.335Z,41.67
2019-05-11T06:50:28.345Z,41.27
2019-05-11T06:51:28.312Z,41.27
2019-05-11T06:52:28.305Z,41.47
2019-05-11T06:53:28.294Z,41.47
2019-05-11T06:54:28.280Z,41.58
2019-05-11T06:55:28.296Z,41.27
2019-05-11T06:56:28.265Z,41.58
2019-05-11T06:57:28.250Z,42.27
2019-05-11T06:58:28.238Z,42.07
2019-05-11T06:59:28.226Z,41.38
2019-05-11T07:00:28.236Z,42.29
2019-05-11T07:01:28.202Z,41.77
2019-05-11T07:02:28.190Z,42.27
2019-05-11T07:03:28.179Z,42.18
2019-05-11T07:04:28.173Z,41.27
2019-05-11T07:05:28.184Z,42.07
2019-05-11T07:06:30.523Z,41.97
2019-05-11T07:07:28.139Z,42.18
2019-05-11T07:08:28.125Z,41.77
2019-05-11T07:09:28.114Z,42.27
2019-05-11T07:10:28.129Z,41.77
2019-05-11T07:11:28.093Z,42.27
2019-05-11T07:12:28.086Z,41.88
2019-05-11T07:13:28.071Z,41.67
2019-05-11T07:14:28.063Z,41.60
2019-05-11T07:15:28.069Z,41.77
2019-05-11T07:16:28.046Z,41.77
2019-05-11T07:17:28.030Z,41.67
2019-05-11T07:18:28.014Z,41.47
2019-05-11T07:19:28.008Z,42.38
2019-05-11T07:20:28.014Z,41.77
2019-05-11T07:21:27.987Z,41.88
2019-05-11T07:22:27.972Z,42.27
2019-05-11T07:23:27.961Z,42.38
2019-05-11T07:24:27.953Z,41.77
2019-05-11T07:25:27.964Z,41.27
2019-05-11T07:26:27.929Z,42.27
2019-05-11T07:27:27.919Z,42.27
2019-05-11T07:28:27.909Z,42.27
2019-05-11T07:29:27.895Z,41.38
2019-05-11T07:30:27.908Z,41.58
2019-05-11T07:31:27.908Z,41.38
2019-05-11T07:32:29.325Z,41.38
2019-05-11T07:33:28.685Z,42.27
2019-05-11T07:34:27.908Z,42.18
2019-05-11T07:35:28.012Z,42.07
2019-05-11T07:36:28.362Z,41.97
2019-05-11T07:37:28.106Z,42.18
2019-05-11T07:38:27.993Z,42.18
2019-05-11T07:39:28.025Z,41.27
2019-05-11T07:40:27.999Z,42.27
2019-05-11T07:41:28.256Z,41.77
2019-05-11T07:42:28.563Z,42.27
2019-05-11T07:43:28.758Z,42.18
2019-05-11T07:44:37.646Z,42.18
2019-05-11T07:45:28.719Z,41.38
2019-05-11T07:46:28.760Z,42.07
2019-05-11T07:47:27.955Z,41.27
2019-05-11T07:48:28.015Z,41.58
2019-05-11T07:49:29.230Z,41.58
2019-05-11T07:50:28.373Z,41.38
2019-05-11T07:51:28.703Z,42.18
2019-05-11T07:52:28.714Z,41.38
2019-05-11T07:53:28.041Z,41.27
2019-05-11T07:54:28.187Z,41.47
2019-05-11T07:55:28.328Z,41.47
2019-05-11T07:56:28.478Z,41.27
2019-05-11T07:57:28.360Z,41.47
2019-05-11T07:58:28.560Z,41.27
2019-05-11T07:59:28.894Z,41.47
2019-05-11T08:00:28.177Z,41.47
2019-05-11T08:01:28.339Z,41.38
2019-05-11T08:02:28.521Z,41.27
2019-05-11T08:03:28.341Z,41.97
2019-05-11T08:04:28.774Z,41.47
2019-05-11T08:05:28.421Z,41.88
2019-05-11T08:06:28.534Z,41.58
2019-05-11T08:07:28.560Z,41.97
2019-05-11T08:08:28.370Z,41.77
2019-05-11T08:09:27.938Z,41.58
2019-05-11T08:10:28.155Z,41.58
2019-05-11T08:11:30.782Z,41.97
2019-05-11T08:12:28.456Z,41.58
2019-05-11T08:13:28.242Z,41.27
2019-05-11T08:14:28.753Z,41.27
2019-05-11T08:15:28.370Z,41.67
2019-05-11T08:16:28.588Z,41.47
2019-05-11T08:17:28.640Z,41.47
2019-05-11T08:18:28.180Z,41.97
2019-05-11T08:19:28.279Z,41.77
2019-05-11T08:20:28.068Z,41.47
2019-05-11T08:21:28.403Z,41.67
2019-05-11T08:22:28.389Z,41.47
2019-05-11T08:23:28.512Z,41.58
2019-05-11T08:24:28.480Z,41.97
2019-05-11T08:25:28.684Z,41.97
2019-05-11T08:26:28.317Z,41.58
2019-05-11T08:27:28.573Z,41.77
2019-05-11T08:28:28.784Z,41.27
2019-05-11T08:29:27.949Z,41.38
2019-05-11T08:30:27.806Z,41.77
2019-05-11T08:31:27.893Z,41.77
2019-05-11T08:32:28.619Z,41.77
2019-05-11T08:33:28.373Z,41.88
2019-05-11T08:34:28.618Z,41.77
2019-05-11T08:35:30.880Z,41.88
2019-05-11T08:36:28.933Z,41.77
2019-05-11T08:37:28.370Z,41.77
2019-05-11T08:38:28.515Z,41.77
2019-05-11T08:39:28.808Z,41.47
2019-05-11T08:40:28.817Z,41.77
2019-05-11T08:41:27.974Z,41.77
2019-05-11T08:42:28.852Z,41.67
2019-05-11T08:43:28.563Z,41.77
2019-05-11T08:44:28.755Z,41.77
2019-05-11T08:45:27.972Z,41.77
2019-05-11T08:46:27.924Z,41.97
2019-05-11T08:47:28.357Z,41.77
2019-05-11T08:48:28.284Z,41.77
2019-05-11T08:49:28.725Z,41.77
2019-05-11T08:50:27.889Z,41.67
2019-05-11T08:51:28.007Z,41.77
2019-05-11T08:52:28.091Z,41.77
2019-05-11T08:53:28.422Z,41.66
2019-05-11T08:54:28.831Z,42.07
2019-05-11T08:55:28.974Z,41.67
2019-05-11T08:56:28.874Z,41.85
2019-05-11T08:57:28.545Z,41.67
2019-05-11T08:58:27.811Z,41.77
2019-05-11T08:59:27.842Z,41.66
2019-05-11T09:00:28.332Z,41.85
2019-05-11T09:01:28.717Z,41.96
2019-05-11T09:02:27.825Z,41.67
2019-05-11T09:03:28.460Z,41.75
2019-05-11T09:04:28.800Z,41.66
2019-05-11T09:05:28.051Z,41.67
2019-05-11T09:06:28.422Z,41.75
2019-05-11T09:07:27.819Z,41.55
2019-05-11T09:08:28.351Z,41.96
2019-05-11T09:09:28.683Z,42.15
2019-05-11T09:10:28.143Z,42.15
2019-05-11T09:11:28.368Z,42.05
2019-05-11T09:12:28.765Z,41.96
2019-05-11T09:13:27.987Z,42.05
2019-05-11T09:14:28.317Z,42.15
2019-05-11T09:15:36.446Z,42.25
2019-05-11T09:16:29.126Z,41.96
2019-05-11T09:17:28.799Z,42.05
2019-05-11T09:18:28.010Z,41.96
2019-05-11T09:19:28.435Z,41.85
2019-05-11T09:20:28.488Z,41.75
2019-05-11T09:21:28.178Z,41.75
2019-05-11T09:22:28.327Z,41.96
2019-05-11T09:23:34.672Z,42.05
2019-05-11T09:24:28.280Z,41.75
2019-05-11T09:25:27.757Z,41.85
2019-05-11T09:26:28.661Z,42.25
2019-05-11T09:27:28.519Z,41.75
2019-05-11T09:28:29.303Z,41.85
2019-05-11T09:29:28.191Z,42.15
2019-05-11T09:30:28.649Z,42.05
2019-05-11T09:31:27.950Z,42.15
2019-05-11T09:32:28.542Z,42.15
2019-05-11T09:33:28.284Z,41.75
2019-05-11T09:34:28.649Z,42.05
2019-05-11T09:35:29.037Z,42.05
2019-05-11T09:36:28.515Z,41.96
2019-05-11T09:37:27.765Z,42.05
2019-05-11T09:38:27.757Z,41.96
2019-05-11T09:39:28.066Z,41.96
2019-05-11T09:40:28.380Z,41.96
2019-05-11T09:41:28.772Z,41.85
2019-05-11T09:42:28.420Z,41.96
2019-05-11T09:43:28.363Z,41.85
2019-05-11T09:44:28.620Z,41.55
2019-05-11T09:45:27.802Z,41.46
2019-05-11T09:46:27.883Z,41.85
2019-05-11T09:47:27.928Z,41.96
2019-05-11T09:48:28.402Z,41.36
2019-05-11T09:49:43.349Z,42.05
2019-05-11T09:50:28.384Z,41.66
2019-05-11T09:51:28.595Z,41.85
2019-05-11T09:52:27.596Z,41.66
2019-05-11T09:53:28.315Z,41.85
2019-05-11T09:54:28.756Z,41.85
2019-05-11T09:55:28.274Z,41.55
2019-05-11T09:56:28.596Z,41.66
2019-05-11T09:57:27.623Z,41.46
2019-05-11T09:58:28.074Z,42.05
2019-05-11T09:59:28.273Z,41.36
2019-05-11T10:00:28.284Z,41.55
2019-05-11T10:01:26.214Z,41.75
2019-05-11T10:02:27.993Z,41.85
2019-05-11T10:03:28.137Z,42.05
2019-05-11T10:04:28.606Z,41.85
2019-05-11T10:05:28.436Z,41.85
2019-05-11T10:06:28.187Z,41.75
2019-05-11T10:07:28.450Z,41.46
2019-05-11T10:08:28.541Z,41.93
2019-05-11T10:09:28.022Z,41.85
2019-05-11T10:10:26.115Z,41.66
2019-05-11T10:11:28.157Z,41.36
2019-05-11T10:12:28.466Z,41.83
2019-05-11T10:13:27.828Z,41.75
2019-05-11T10:14:26.093Z,41.36
2019-05-11T10:15:27.970Z,41.96
2019-05-11T10:16:28.074Z,41.85
2019-05-11T10:17:26.040Z,42.05
2019-05-11T10:18:27.977Z,41.36
2019-05-11T10:19:28.240Z,41.63
2019-05-11T10:20:28.477Z,41.55
2019-05-11T10:21:27.917Z,42.03
2019-05-11T10:22:27.869Z,41.46
2019-05-11T10:23:27.892Z,41.55
2019-05-11T10:24:28.137Z,41.55
2019-05-11T10:25:28.493Z,41.46
2019-05-11T10:26:27.858Z,41.66
2019-05-11T10:27:28.036Z,41.66
2019-05-11T10:28:28.283Z,41.36
2019-05-11T10:29:25.932Z,41.55
2019-05-11T10:30:28.000Z,41.36
2019-05-11T10:31:28.253Z,41.55
2019-05-11T10:32:25.879Z,41.63
2019-05-11T10:33:27.981Z,41.75
2019-05-11T10:34:28.302Z,41.55
2019-05-11T10:35:25.842Z,41.53
2019-05-11T10:36:27.920Z,41.46
2019-05-11T10:37:28.128Z,41.55
2019-05-11T10:38:25.828Z,41.66
2019-05-11T10:39:27.975Z,41.55
2019-05-11T10:40:27.886Z,41.74
2019-05-11T10:41:28.260Z,41.53
2019-05-11T10:42:25.767Z,41.74
2019-05-11T10:43:25.774Z,41.46
2019-05-11T10:44:27.927Z,41.03
2019-05-11T10:45:25.754Z,41.55
2019-05-11T10:46:25.720Z,41.53
2019-05-11T10:47:27.790Z,41.55
2019-05-11T10:48:28.069Z,41.55
2019-05-11T10:49:25.688Z,41.66
2019-05-11T10:50:25.699Z,41.75
2019-05-11T10:51:25.668Z,41.55
2019-05-11T10:52:25.655Z,41.74
2019-05-11T10:53:27.892Z,41.55
2019-05-11T10:54:28.444Z,41.53
2019-05-11T10:55:27.881Z,41.53
2019-05-11T10:56:25.608Z,41.55
2019-05-11T10:57:28.131Z,41.55
2019-05-11T10:58:25.589Z,41.44
2019-05-11T10:59:27.954Z,41.55
2019-05-11T11:00:25.586Z,41.55
2019-05-11T11:01:25.554Z,41.46
2019-05-11T11:02:27.689Z,41.55
2019-05-11T11:03:25.532Z,41.44
2019-05-11T11:04:25.520Z,41.53
2019-05-11T11:05:27.772Z,41.46
2019-05-11T11:06:27.987Z,41.24
2019-05-11T11:07:25.487Z,41.74
2019-05-11T11:08:27.662Z,41.74
2019-05-11T11:09:25.469Z,41.46
2019-05-11T11:10:25.479Z,41.46
2019-05-11T11:11:27.607Z,41.55
2019-05-11T11:12:27.756Z,41.74
2019-05-11T11:13:25.420Z,41.55
2019-05-11T11:14:25.414Z,41.53
2019-05-11T11:15:25.419Z,41.44
2019-05-11T11:16:36.898Z,41.75
2019-05-11T11:17:28.574Z,41.53
2019-05-11T11:18:25.366Z,41.05
2019-05-11T11:19:25.355Z,41.55
2019-05-11T11:20:27.810Z,41.74
2019-05-11T11:21:27.731Z,41.24
2019-05-11T11:22:36.946Z,41.53
2019-05-11T11:23:28.346Z,40.94
2019-05-11T11:24:25.301Z,41.33
2019-05-11T11:25:25.309Z,41.63
2019-05-11T11:26:25.301Z,41.14
2019-05-11T11:27:25.267Z,41.33
2019-05-11T11:28:25.259Z,41.33
2019-05-11T11:29:25.248Z,41.44
2019-05-11T11:30:25.240Z,41.14
2019-05-11T11:31:25.243Z,41.14
2019-05-11T11:32:27.657Z,41.44
2019-05-11T11:33:27.538Z,41.63
2019-05-11T11:34:25.188Z,41.63
2019-05-11T11:35:25.177Z,41.63
2019-05-11T11:36:25.191Z,41.63
2019-05-11T11:37:25.160Z,41.53
2019-05-11T11:38:25.173Z,41.53
2019-05-11T11:39:25.132Z,41.53
2019-05-11T11:40:25.121Z,41.33
2019-05-11T11:41:25.133Z,41.24
2019-05-11T11:42:25.104Z,41.14
2019-05-11T11:43:25.090Z,40.94
2019-05-11T11:44:25.077Z,41.24
2019-05-11T11:45:25.066Z,41.46
2019-05-11T11:46:25.080Z,41.24
2019-05-11T11:47:25.045Z,41.14
2019-05-11T11:48:25.033Z,41.24
2019-05-11T11:49:25.023Z,41.53
2019-05-11T11:50:25.012Z,41.33
2019-05-11T11:51:25.022Z,41.53
2019-05-11T11:52:24.990Z,41.44
2019-05-11T11:53:24.979Z,41.53
2019-05-11T11:54:24.968Z,41.53
2019-05-11T11:55:24.956Z,41.44
2019-05-11T11:56:24.969Z,41.53
2019-05-11T11:57:24.937Z,41.63
2019-05-11T11:58:24.924Z,41.33
2019-05-11T11:59:24.915Z,41.63
2019-05-11T12:00:24.902Z,41.44
2019-05-11T12:01:24.913Z,41.44
2019-05-11T12:02:24.882Z,41.53
2019-05-11T12:03:24.872Z,41.33
2019-05-11T12:04:24.856Z,41.61
2019-05-11T12:05:24.852Z,41.31
2019-05-11T12:06:24.858Z,41.24
2019-05-11T12:07:24.845Z,41.93
2019-05-11T12:08:24.813Z,41.24
2019-05-11T12:09:24.800Z,41.53
2019-05-11T12:10:24.789Z,41.53
2019-05-11T12:11:24.777Z,41.82
2019-05-11T12:12:24.794Z,41.82
2019-05-11T12:13:27.414Z,41.83
2019-05-11T12:14:24.746Z,41.71
2019-05-11T12:15:24.734Z,41.82
2019-05-11T12:16:24.727Z,41.22
2019-05-11T12:17:24.733Z,41.33
2019-05-11T12:18:24.704Z,41.61
2019-05-11T12:19:24.695Z,41.14
2019-05-11T12:20:24.679Z,41.63
2019-05-11T12:21:24.668Z,41.41
2019-05-11T12:22:24.678Z,41.02
2019-05-11T12:23:24.646Z,41.83
2019-05-11T12:24:24.635Z,41.02
2019-05-11T12:25:24.624Z,40.92
2019-05-11T12:26:24.612Z,41.02
2019-05-11T12:27:24.624Z,41.71
2019-05-11T12:28:24.591Z,41.11
2019-05-11T12:29:24.578Z,41.11
2019-05-11T12:30:24.570Z,41.22
2019-05-11T12:31:24.557Z,41.71
2019-05-11T12:32:24.579Z,40.94
2019-05-11T12:33:24.540Z,40.92
2019-05-11T12:34:24.525Z,41.11
2019-05-11T12:35:24.517Z,40.92
2019-05-11T12:36:24.503Z,40.94
2019-05-11T12:37:24.513Z,40.81
2019-05-11T12:38:24.479Z,41.03
2019-05-11T12:39:24.470Z,40.92
2019-05-11T12:40:24.457Z,40.83
2019-05-11T12:41:24.449Z,40.94
2019-05-11T12:42:24.459Z,40.72
2019-05-11T12:43:24.445Z,41.11
2019-05-11T12:44:24.417Z,41.02
2019-05-11T12:45:24.405Z,41.14
2019-05-11T12:46:24.392Z,40.92
2019-05-11T12:47:25.286Z,41.22
2019-05-11T12:48:24.393Z,41.11
2019-05-11T12:49:24.358Z,41.11
2019-05-11T12:50:24.348Z,41.83
2019-05-11T12:51:24.341Z,41.52
2019-05-11T12:52:24.326Z,41.22